Catalog of nestbox measurements from 1985-01-01 00:00:00 to 2017-09-24 07:01:05
 Site  Measurement   Current Value    First Data      Last Data  
 MossCam CH Interior  Inside Humidity   unavailable 2017-09-24 07:01:05    2003-05-02 16:36:03       2003-10-16 15:29:52   Gif Graph & Data download
 MossCam CH Interior  Inside Temperature   unavailable 2017-09-24 07:01:05    2003-04-30 18:39:43       2003-10-16 15:29:52   Gif Graph & Data download
 MossCam Relay  Inside Humidity   unavailable 2017-09-24 07:01:05    2003-04-29 19:04:51       2003-08-19 10:58:09   Gif Graph & Data download
 MossCam Relay  Inside Temperature   unavailable 2017-09-24 07:01:05    2003-04-29 19:04:51       2003-08-19 10:58:09   Gif Graph & Data download
 Nestbox 03  Inside Humidity   unavailable 2017-09-24 07:01:05    2004-04-22 16:25:29       2008-04-23 12:57:00   Gif Graph & Data download
 Nestbox 03  Inside Temperature   unavailable 2017-09-24 07:01:05    2004-04-22 16:25:29       2008-04-23 12:57:00   Gif Graph & Data download
 Nestbox 08  Inside Humidity   unavailable 2017-09-24 07:01:05    2004-04-15 17:15:37       2008-04-23 12:56:29   Gif Graph & Data download
 Nestbox 08  Inside Temperature   unavailable 2017-09-24 07:01:05    2004-04-15 17:15:37       2008-04-23 12:56:29   Gif Graph & Data download
 Nestbox 11  Inside Humidity   unavailable 2017-09-24 07:01:05    2004-04-22 17:38:49       2008-03-06 12:58:56   Gif Graph & Data download
 Nestbox 11  Inside Temperature   unavailable 2017-09-24 07:01:05    2004-04-22 17:38:49       2008-03-06 12:58:56   Gif Graph & Data download
 Nestbox 13  Inside Humidity   unavailable 2017-09-24 07:01:05    2002-12-06 02:41:29       2010-05-10 02:59:57   Gif Graph & Data download
 Nestbox 13  Inside Temperature   unavailable 2017-09-24 07:01:05    2002-12-06 02:41:29       2010-05-10 02:59:57   Gif Graph & Data download
 Nestbox 14  Inside Humidity   unavailable 2017-09-24 07:01:05    2004-04-22 17:06:10       2008-04-23 12:56:55   Gif Graph & Data download
 Nestbox 14  Inside Temperature   unavailable 2017-09-24 07:01:05    2004-04-22 17:06:10       2008-04-23 12:56:55   Gif Graph & Data download
 Nestbox 21  Inside Humidity   unavailable 2017-09-24 07:01:05    2004-04-22 14:58:45       2008-04-23 12:56:18   Gif Graph & Data download
 Nestbox 21  Inside Temperature   unavailable 2017-09-24 07:01:05    2004-04-22 14:58:45       2008-04-23 12:56:18   Gif Graph & Data download
 Nestbox 22  Inside Humidity   unavailable 2017-09-24 07:01:05    2004-04-14 18:16:26       2008-04-23 12:56:14   Gif Graph & Data download
 Nestbox 22  Inside Temperature   unavailable 2017-09-24 07:01:05    2004-04-14 18:16:26       2008-04-23 12:56:14   Gif Graph & Data download
 Nestbox 27  Inside Humidity   unavailable 2017-09-24 07:01:05    2004-04-14 19:05:37       2008-04-23 12:59:21   Gif Graph & Data download
 Nestbox 27  Inside Temperature   unavailable 2017-09-24 07:01:05    2004-04-14 19:05:37       2008-04-23 12:59:21   Gif Graph & Data download
 Nestbox 31  Inside Humidity   unavailable 2017-09-24 07:01:05    2004-04-22 15:42:12       2008-04-23 12:56:03   Gif Graph & Data download
 Nestbox 31  Inside Temperature   unavailable 2017-09-24 07:01:05    2004-04-22 15:42:12       2008-04-23 12:56:03   Gif Graph & Data download
 Nestbox 45  Inside Humidity   unavailable 2017-09-24 07:01:05    2004-04-15 16:35:46       2008-04-23 12:55:17   Gif Graph & Data download
 Nestbox 45  Inside Temperature   unavailable 2017-09-24 07:01:05    2004-04-15 16:35:46       2008-04-23 12:55:17   Gif Graph & Data download
 Nestbox 47  Inside Humidity   unavailable 2017-09-24 07:01:05    2002-12-06 02:39:55       2010-05-31 14:12:40   Gif Graph & Data download
 Nestbox 47  Inside Temperature   unavailable 2017-09-24 07:01:05    2002-12-06 02:39:55       2010-05-31 14:12:40   Gif Graph & Data download
 Nestbox 47  Inside Thermopile   unavailable 2017-09-24 07:01:05    2003-05-05 16:46:04       2003-08-20 11:56:25   Gif Graph & Data download
 Nestbox 48  Inside Humidity   unavailable 2017-09-24 07:01:05    2004-04-22 18:15:11       2008-04-23 12:55:08   Gif Graph & Data download
 Nestbox 48  Inside Temperature   unavailable 2017-09-24 07:01:05    2004-04-22 18:15:11       2008-04-23 12:55:08   Gif Graph & Data download
 Nestbox 50  Inside Humidity   unavailable 2017-09-24 07:01:05    2002-12-06 02:40:45       2010-04-30 10:10:12   Gif Graph & Data download
 Nestbox 50  Inside Temperature   unavailable 2017-09-24 07:01:05    2002-12-06 02:40:45       2010-04-30 10:10:12   Gif Graph & Data download
 Nestbox 50  Inside Thermopile   unavailable 2017-09-24 07:01:05    2003-05-06 17:17:23       2003-08-20 11:49:05   Gif Graph & Data download
 Nestbox 54  Inside Humidity   unavailable 2017-09-24 07:01:05    2004-04-26 17:19:40       2008-04-23 12:58:07   Gif Graph & Data download
 Nestbox 54  Inside Temperature   unavailable 2017-09-24 07:01:05    2004-04-26 17:19:40       2008-04-23 12:58:07   Gif Graph & Data download
 Nestbox 55  Inside Humidity   unavailable 2017-09-24 07:01:05    2004-05-04 00:44:19       2008-04-23 12:58:52   Gif Graph & Data download
 Nestbox 55  Inside Temperature   unavailable 2017-09-24 07:01:05    2004-05-04 00:44:19       2008-04-23 12:58:52   Gif Graph & Data download
 Test board  Inside Humidity   unavailable 2017-09-24 07:01:05    2003-04-30 14:42:14       2003-05-02 16:17:18   Gif Graph & Data download
 Test board  Inside Temperature   unavailable 2017-09-24 07:01:05    2003-04-30 14:42:14       2003-04-30 18:33:27   Gif Graph & Data download